This is the latest recevied weather packets stored in our database for station/object KB2AHZ. If no packets are shown the sender has not sent any weather packets the latest 10 day(s).
| Time | Temp. | Humidity | Pressure | Rain* | Wind** | Luminosity | Snow |
|---|---|---|---|---|---|---|---|
| 1777109695 | 18.89° C | 70% | 1008.2 hPa | 0 mm | - | 0 W/m² | - |
| 1777109391 | 18.89° C | 71% | 1008.4 hPa | 0 mm | - | 0 W/m² | - |
| 1777109088 | 18.89° C | 72% | 1008.3 hPa | 0 mm | - | 0 W/m² | - |
| 1777108787 | 18.89° C | 69% | 1008.3 hPa | 0 mm | - | 0 W/m² | - |
| 1777108485 | 18.89° C | 70% | 1008.5 hPa | 0 mm | - | 0 W/m² | - |
| 1777108180 | 18.89° C | 72% | 1008.3 hPa | 0 mm | - | 0 W/m² | - |
| 1777107876 | 18.89° C | 71% | 1008.4 hPa | 0 mm | - | 0 W/m² | - |
| 1777107571 | 18.33° C | 73% | 1008.2 hPa | 0 mm | - | 0 W/m² | - |
| 1777107267 | 18.33° C | 75% | 1008.2 hPa | 0 mm | - | 0 W/m² | - |
| 1777106967 | 18.33° C | 74% | 1008.3 hPa | 0 mm | - | 0 W/m² | - |
| 1777106664 | 18.33° C | 75% | 1008.1 hPa | 0 mm | - | 0 W/m² | - |
| 1777106360 | 18.33° C | 75% | 1008.2 hPa | 0 mm | - | 0 W/m² | - |
| 1777106056 | 18.89° C | 74% | 1008.1 hPa | 0 mm | - | 0 W/m² | - |
| 1777105754 | 18.89° C | 73% | 1008.1 hPa | 0 mm | - | 0 W/m² | - |
| 1777105449 | 18.89° C | 73% | 1008.1 hPa | 0 mm | - | 0 W/m² | - |
| 1777105146 | 18.89° C | 72% | 1008.2 hPa | 0 mm | - | 0 W/m² | - |
| 1777104843 | 19.44° C | 71% | 1008.1 hPa | 0 mm | - | 0 W/m² | - |
| 1777104538 | 19.44° C | 69% | 1008.3 hPa | 0 mm | - | 0 W/m² | - |
| 1777104235 | 20° C | 66% | 1008.4 hPa | 0 mm | - | 0 W/m² | - |
| 1777103930 | 19.44° C | 69% | 1008.3 hPa | 0 mm | - | 0 W/m² | - |
| 1777103627 | 19.44° C | 69% | 1008.3 hPa | 0 mm | - | 0 W/m² | - |
| 1777103324 | 19.44° C | 68% | 1008.2 hPa | 0 mm | - | 0 W/m² | - |
| 1777103022 | 20° C | 67% | 1008.2 hPa | 0 mm | - | 0 W/m² | - |
| 1777102718 | 20° C | 67% | 1008.4 hPa | 0 mm | - | 0 W/m² | - |
| 1777102414 | 20° C | 67% | 1008.3 hPa | 0 mm | - | 0 W/m² | - |
* Rain latest hour (hover to see other rain measurements)
** Current wind speed in m/s (hover to see current wind gust speed)